Terminal Aerodrome Forecast
Issued by NWS

Home | Current Version | Previous Version | Text Only | Print | Product List | Glossary On
Versions: 1 2 3 4 5 6 7 8 9 10 11 12 13 14 15 16 17 18 19 20 21 22 23 24 25 26 27 28 29
162
FTUS46 KEKA 050126 AAA
TAFCEC
TAF AMD
KCEC 050126Z 0501/0524 33005KT 5SM BR VCSH FEW015 BKN050 OVC080
     FM050300 VRB06KT 6SM BR VCSH FEW015 BKN030 OVC050
     FM050600 18008KT 6SM BR OVC050
     FM051200 35006KT 4SM BR OVC050
     FM052100 33010KT P6SM OVC050=

USA.gov is the U.S. government's official web portal to all federal, state and local government web resources and services.